Asukamaru — JG5536 — position and weather

sailwx.info

Track history (hours):
 
Tides and Currents Weather Stations Pressure Air Temp Water Temp Dewpoint Dewpoint Depression Visibility Wind Speed Wind Dir Waves Ship Positions

Asukamaru

Last reported at 2014-Aug-30 11:33 UTC. Time now 2014-Aug-30 12:29 UTC.
Position N 35°38' E 139°45'.

Length 31 m; draft 3 m.

Type: Tug. MMSI: 431001145.

Date/timePositionNaut miles runAvg speedWind from/ knotsBaromVisibWave heightAir tempDewpointWater temp
2014-Aug-30 11:33N 35°38' E 139°45'0 0.0
2014-Aug-30 10:33N 35°38' E 139°45'0 0.0
2014-Aug-30 09:33N 35°38' E 139°45'0 0.0
2014-Aug-30 08:33N 35°38' E 139°45'0 0.0
2014-Aug-30 07:33N 35°38' E 139°45'0 0.0
2014-Aug-30 06:33N 35°38' E 139°45'0 0.0
2014-Aug-30 05:33N 35°38' E 139°45'0 0.0
2014-Aug-30 04:33N 35°38' E 139°45'1 0.6
2014-Aug-30 03:33N 35°38' E 139°46'1 0.6
2014-Aug-30 02:33N 35°38' E 139°45'0 0.0
2014-Aug-30 01:33N 35°38' E 139°45'0 0.0
2014-Aug-30 00:33N 35°38' E 139°45'0 0.0
2014-Aug-29 23:33N 35°38' E 139°45'0 0.0
2014-Aug-29 22:33N 35°38' E 139°45'0 0.0
2014-Aug-29 21:33N 35°38' E 139°45'0 0.0
2014-Aug-29 20:33N 35°38' E 139°45'0 0.0
2014-Aug-29 19:33N 35°38' E 139°45'0 0.0
2014-Aug-29 18:33N 35°38' E 139°45'0 0.0
2014-Aug-29 17:33N 35°38' E 139°45'0 0.0
2014-Aug-29 16:33N 35°38' E 139°45'0 0.0
2014-Aug-29 15:33N 35°38' E 139°45'0 0.0
2014-Aug-29 14:33N 35°38' E 139°45'1 1.0
2014-Aug-29 13:34N 35°37' E 139°46'1 0.9
2014-Aug-29 12:33N 35°37' E 139°47'2 1.9
2014-Aug-29 11:33N 35°38' E 139°45'3 2.8
2014-Aug-29 10:32N 35°36' E 139°48'0 0.0
2014-Aug-29 09:33N 35°36' E 139°48'1 1.2
2014-Aug-29 08:34N 35°36' E 139°46'2 2.0
2014-Aug-29 07:33N 35°38' E 139°45'0 0.0
2014-Aug-29 06:33N 35°38' E 139°45'0 0.0
2014-Aug-29 05:32N 35°38' E 139°45'0 0.0
2014-Aug-29 04:33N 35°38' E 139°45'0 0.0
2014-Aug-29 03:33N 35°38' E 139°45'0 0.0
2014-Aug-29 02:33N 35°38' E 139°45'0 0.0
2014-Aug-29 01:33N 35°38' E 139°45'0 0.0
2014-Aug-29 00:33N 35°38' E 139°45'0 0.0
2014-Aug-28 23:33N 35°38' E 139°45'3 3.3
2014-Aug-28 22:33N 35°35' E 139°47'3 3.3
2014-Aug-28 21:33N 35°38' E 139°45'0 0.0
2014-Aug-28 20:33N 35°38' E 139°45'0 0.0
2014-Aug-28 19:33N 35°38' E 139°45'0 0.0
2014-Aug-28 18:33N 35°38' E 139°45'0 0.0
2014-Aug-28 17:33N 35°38' E 139°45'0 0.0
2014-Aug-28 16:33N 35°38' E 139°45'0 0.0
2014-Aug-28 15:33N 35°38' E 139°45'0 0.0
2014-Aug-28 14:33N 35°38' E 139°45'0 0.0
2014-Aug-28 13:33N 35°38' E 139°45'0 0.0
2014-Aug-28 12:33N 35°38' E 139°45'0 0.0
2014-Aug-28 11:33N 35°38' E 139°45'0 0.0
2014-Aug-28 10:33N 35°38' E 139°45'0 0.0
2014-Aug-28 09:33N 35°38' E 139°46'0 0.1
2014-Aug-28 08:33N 35°38' E 139°45'3 2.8
2014-Aug-28 07:33N 35°36' E 139°47'3 2.7
2014-Aug-28 06:33N 35°38' E 139°45'0 0.0
2014-Aug-28 05:33N 35°38' E 139°45'0 0.0
2014-Aug-28 04:33N 35°38' E 139°45'0 0.0
2014-Aug-28 03:33N 35°38' E 139°45'0 0.0
2014-Aug-28 02:33N 35°38' E 139°45'0 0.0
2014-Aug-28 01:33N 35°38' E 139°45'0 0.0
2014-Aug-28 00:33N 35°38' E 139°45'0 0.0
2014-Aug-27 23:33N 35°38' E 139°45'0 0.0
2014-Aug-27 22:33N 35°38' E 139°45'0 0.0
2014-Aug-27 21:33N 35°38' E 139°45'0 0.0
2014-Aug-27 20:33N 35°38' E 139°45'0 0.0
2014-Aug-27 19:33N 35°38' E 139°45'0 0.0
2014-Aug-27 18:33N 35°38' E 139°45'0 0.0
2014-Aug-27 17:33N 35°38' E 139°45'0 0.0
2014-Aug-27 16:33N 35°38' E 139°45'0 0.0
2014-Aug-27 15:33N 35°38' E 139°45'0 0.0
2014-Aug-27 14:33N 35°38' E 139°45'0 0.0
2014-Aug-27 13:33N 35°38' E 139°45'0 0.0
2014-Aug-27 12:33N 35°38' E 139°45'0 0.0
2014-Aug-27 11:33N 35°38' E 139°45'0 0.0
2014-Aug-27 10:33N 35°38' E 139°45'2 2.2
2014-Aug-27 09:34N 35°36' E 139°46'1 1.1
2014-Aug-27 08:33N 35°36' E 139°48'2 1.8
2014-Aug-27 07:33N 35°37' E 139°46'1 1.1
2014-Aug-27 06:33N 35°38' E 139°45'0 0.0
2014-Aug-27 05:33N 35°38' E 139°45'0 0.0
2014-Aug-27 04:33N 35°38' E 139°45'0 0.0
2014-Aug-27 03:33N 35°38' E 139°46'0 0.0
2014-Aug-27 02:33N 35°38' E 139°45'0 0.0
2014-Aug-27 01:33N 35°38' E 139°45'0 0.0
2014-Aug-27 00:33N 35°38' E 139°45'0 0.0
2014-Aug-26 23:33N 35°38' E 139°45'0 0.0
2014-Aug-26 22:33N 35°38' E 139°45'0 0.0
2014-Aug-26 21:33N 35°38' E 139°45'0 0.0
2014-Aug-26 20:33N 35°38' E 139°45'0 0.0
2014-Aug-26 19:33N 35°38' E 139°45'0 0.0
2014-Aug-26 18:33N 35°38' E 139°45'0 0.0
2014-Aug-26 17:33N 35°38' E 139°45'0 0.0
2014-Aug-26 16:33N 35°38' E 139°45'0 0.0
2014-Aug-26 15:33N 35°38' E 139°45'0 0.0
2014-Aug-26 14:33N 35°38' E 139°45'0 0.0
2014-Aug-26 13:33N 35°38' E 139°46'0 0.0
2014-Aug-26 12:33N 35°38' E 139°45'0 0.0
2014-Aug-26 11:33N 35°38' E 139°46'0 0.0
2014-Aug-26 10:33N 35°38' E 139°45'0 0.0
2014-Aug-26 09:33N 35°38' E 139°45'4 4.2
2014-Aug-26 08:33N 35°35' E 139°48'3 3.2
2014-Aug-26 07:34N 35°37' E 139°46'1 1.1
2014-Aug-26 06:33N 35°38' E 139°45'0 0.0
2014-Aug-26 05:33N 35°38' E 139°45'0 0.0
2014-Aug-26 04:33N 35°38' E 139°45'0 0.0
2014-Aug-26 03:33N 35°38' E 139°45'0 0.0
2014-Aug-26 02:33N 35°38' E 139°45'0 0.0
2014-Aug-26 01:33N 35°38' E 139°45'0 0.0
2014-Aug-26 00:33N 35°38' E 139°45'3 2.9
2014-Aug-25 23:33N 35°36' E 139°47'3 2.9
2014-Aug-25 22:33N 35°38' E 139°45'0 0.0
2014-Aug-25 21:33N 35°38' E 139°45'0 0.0
2014-Aug-25 20:33N 35°38' E 139°45'0 0.0
2014-Aug-25 19:33N 35°38' E 139°45'0 0.0
2014-Aug-25 18:33N 35°38' E 139°45'0 0.0
2014-Aug-25 17:33N 35°38' E 139°45'0 0.0
2014-Aug-25 16:33N 35°38' E 139°45'0 0.0
2014-Aug-25 15:33N 35°38' E 139°45'0 0.0
2014-Aug-25 14:33N 35°38' E 139°45'0 0.0
2014-Aug-25 13:33N 35°38' E 139°45'0 0.0
2014-Aug-25 12:33N 35°38' E 139°45'0 0.0
2014-Aug-25 11:33N 35°38' E 139°45'0 0.0
2014-Aug-25 10:33N 35°38' E 139°45'0 0.0
2014-Aug-25 09:33N 35°38' E 139°45'0 0.0
2014-Aug-25 08:33N 35°38' E 139°45'0 0.0
2014-Aug-25 07:33N 35°38' E 139°45'0 0.0
2014-Aug-25 06:33N 35°38' E 139°45'0 0.0
2014-Aug-25 05:33N 35°38' E 139°45'0 0.0
2014-Aug-25 04:33N 35°38' E 139°45'0 0.0
2014-Aug-25 03:33N 35°38' E 139°45'0 0.0
2014-Aug-25 02:33N 35°38' E 139°45'0 0.0
2014-Aug-25 01:33N 35°38' E 139°45'0 0.0
2014-Aug-25 00:33N 35°38' E 139°45'0 0.0
2014-Aug-24 23:33N 35°38' E 139°45'0 0.0
2014-Aug-24 22:33N 35°38' E 139°45'0 0.0
2014-Aug-24 21:33N 35°38' E 139°45'0 0.0
2014-Aug-24 20:33N 35°38' E 139°45'0 0.0
2014-Aug-24 19:33N 35°38' E 139°45'0 0.0
2014-Aug-24 18:33N 35°38' E 139°45'0 0.0
2014-Aug-24 17:33N 35°38' E 139°45'0 0.0
2014-Aug-24 16:33N 35°38' E 139°45'0 0.0
2014-Aug-24 15:33N 35°38' E 139°45'0 0.0
2014-Aug-24 14:33N 35°38' E 139°45'0 0.0
2014-Aug-24 13:33N 35°38' E 139°45'0 0.0
2014-Aug-24 12:33N 35°38' E 139°45'0 0.0
2014-Aug-24 11:33N 35°38' E 139°45'0 0.0
2014-Aug-24 10:33N 35°38' E 139°45'0 0.0
2014-Aug-24 09:33N 35°38' E 139°45'0 0.0
2014-Aug-24 08:33N 35°38' E 139°45'0 0.0
2014-Aug-24 07:33N 35°38' E 139°45'0 0.0
2014-Aug-24 06:33N 35°38' E 139°45'0 0.0
2014-Aug-24 05:33N 35°38' E 139°45'0 0.0
2014-Aug-24 04:33N 35°38' E 139°45'0 0.0
2014-Aug-24 03:33N 35°38' E 139°45'0 0.0
2014-Aug-24 02:33N 35°38' E 139°45'0 0.0
2014-Aug-24 01:33N 35°38' E 139°45'0 0.0
2014-Aug-24 00:33N 35°38' E 139°45'0 0.0
2014-Aug-23 23:33N 35°38' E 139°45'0 0.0
2014-Aug-23 22:33N 35°38' E 139°45'0 0.0
2014-Aug-23 21:33N 35°38' E 139°45'0 0.0
2014-Aug-23 20:33N 35°38' E 139°45'0 0.0
2014-Aug-23 19:33N 35°38' E 139°45'0 0.0
2014-Aug-23 03:33N 35°38' E 139°45'0 0.0
2014-Aug-23 02:33N 35°38' E 139°45'0 0.0
2014-Aug-23 01:33N 35°38' E 139°45'0 0.0
2014-Aug-23 00:33N 35°38' E 139°45'0 0.0
2014-Aug-22 23:33N 35°38' E 139°45'0 0.0
2014-Aug-22 22:33N 35°38' E 139°45'0 0.0
2014-Aug-22 21:33N 35°38' E 139°45'0 0.0
2014-Aug-22 20:33N 35°38' E 139°45'0 0.0
2014-Aug-22 19:33N 35°38' E 139°45'0 0.0
2014-Aug-22 18:33N 35°38' E 139°45'0 0.0
2014-Aug-22 17:33N 35°38' E 139°45'0 0.0
2014-Aug-22 16:33N 35°38' E 139°45'0 0.0
2014-Aug-22 15:33N 35°38' E 139°45'0 0.0
2014-Aug-22 14:33N 35°38' E 139°45'0 0.0
2014-Aug-22 13:33N 35°38' E 139°45'0 0.0
2014-Aug-22 12:33N 35°38' E 139°45'0 0.0
2014-Aug-22 11:33N 35°38' E 139°45'0 0.0
2014-Aug-22 10:33N 35°38' E 139°45'0 0.0
2014-Aug-22 09:33N 35°38' E 139°45'0 0.0
2014-Aug-22 08:33N 35°38' E 139°45'0 0.0
2014-Aug-22 07:33N 35°38' E 139°45'0 0.0
2014-Aug-22 06:32N 35°38' E 139°45'0 0.0
2014-Aug-22 05:33N 35°38' E 139°45'0 0.0
2014-Aug-22 04:33N 35°38' E 139°45'2 1.6
2014-Aug-22 03:33N 35°37' E 139°46'2 1.6
2014-Aug-22 02:33N 35°38' E 139°45'0 0.0
2014-Aug-22 01:33N 35°38' E 139°45'0 0.0
2014-Aug-22 00:33N 35°38' E 139°45'1 1.0
2014-Aug-21 23:33N 35°37' E 139°46'3 2.8
2014-Aug-21 22:33N 35°35' E 139°48'1 1.3
2014-Aug-21 21:33N 35°36' E 139°46'1 1.5
2014-Aug-21 20:33N 35°37' E 139°46'1 1.2
2014-Aug-21 19:33N 35°38' E 139°45'0 0.0
2014-Aug-21 18:33N 35°38' E 139°45'0 0.0
2014-Aug-21 17:33N 35°38' E 139°45'0 0.0
2014-Aug-21 16:33N 35°38' E 139°45'0 0.0
2014-Aug-21 15:33N 35°38' E 139°45'0 0.0
2014-Aug-21 14:33N 35°38' E 139°45'0 0.0
2014-Aug-21 13:33N 35°38' E 139°45'0 0.0
2014-Aug-21 12:33N 35°38' E 139°45'0 0.0
2014-Aug-21 11:33N 35°38' E 139°45'0 0.0
2014-Aug-21 10:33N 35°38' E 139°45'1 1.1
2014-Aug-21 09:33N 35°37' E 139°46'1 1.3
2014-Aug-21 08:33N 35°36' E 139°47'1 0.9
2014-Aug-21 07:33N 35°35' E 139°47'3 2.9
2014-Aug-21 06:33N 35°38' E 139°45'0 0.0
2014-Aug-21 05:32N 35°38' E 139°45'0 0.0
2014-Aug-21 04:33N 35°38' E 139°45'0 0.0
2014-Aug-21 03:32N 35°38' E 139°45'0 0.0
2014-Aug-21 02:33N 35°38' E 139°45'0 0.0
2014-Aug-21 01:33N 35°38' E 139°45'0 0.0
2014-Aug-21 00:33N 35°38' E 139°45'0 0.0
2014-Aug-20 23:33N 35°38' E 139°45'3 2.9
2014-Aug-20 22:33N 35°35' E 139°47'0 0.1
2014-Aug-20 21:33N 35°36' E 139°47'1 0.9
2014-Aug-20 20:33N 35°36' E 139°46'1 1.1
2014-Aug-20 19:33N 35°36' E 139°47'3 2.7
2014-Aug-20 18:33N 35°38' E 139°45'0 0.0
2014-Aug-20 17:33N 35°38' E 139°45'0 0.0
2014-Aug-20 16:33N 35°38' E 139°45'0 0.0
2014-Aug-20 15:33N 35°38' E 139°45'0 0.0
2014-Aug-20 14:33N 35°38' E 139°45'0 0.0
2014-Aug-20 13:33N 35°38' E 139°45'0 0.0
2014-Aug-20 12:33N 35°38' E 139°45'  
Track history (hours):
 
Tides and Currents Weather Stations Pressure Air Temp Water Temp Dewpoint Dewpoint Depression Visibility Wind Speed Wind Dir Waves Ship Positions

Asukamaru

Last reported at 2014-Aug-30 11:33 UTC. Time now 2014-Aug-30 12:29 UTC.
Position N 35°38' E 139°45'.

Length 31 m; draft 3 m.

Type: Tug. MMSI: 431001145.

Date/timePositionNaut miles runAvg speedWind from/ knotsBaromVisibWave heightAir tempDewpointWater temp
2014-Aug-30 11:33N 35°38' E 139°45'0 0.0
2014-Aug-30 10:33N 35°38' E 139°45'0 0.0
2014-Aug-30 09:33N 35°38' E 139°45'0 0.0
2014-Aug-30 08:33N 35°38' E 139°45'0 0.0
2014-Aug-30 07:33N 35°38' E 139°45'0 0.0
2014-Aug-30 06:33N 35°38' E 139°45'0 0.0
2014-Aug-30 05:33N 35°38' E 139°45'0 0.0
2014-Aug-30 04:33N 35°38' E 139°45'1 0.6
2014-Aug-30 03:33N 35°38' E 139°46'1 0.6
2014-Aug-30 02:33N 35°38' E 139°45'0 0.0
2014-Aug-30 01:33N 35°38' E 139°45'0 0.0
2014-Aug-30 00:33N 35°38' E 139°45'0 0.0
2014-Aug-29 23:33N 35°38' E 139°45'0 0.0
2014-Aug-29 22:33N 35°38' E 139°45'0 0.0
2014-Aug-29 21:33N 35°38' E 139°45'0 0.0
2014-Aug-29 20:33N 35°38' E 139°45'0 0.0
2014-Aug-29 19:33N 35°38' E 139°45'0 0.0
2014-Aug-29 18:33N 35°38' E 139°45'0 0.0
2014-Aug-29 17:33N 35°38' E 139°45'0 0.0
2014-Aug-29 16:33N 35°38' E 139°45'0 0.0
2014-Aug-29 15:33N 35°38' E 139°45'0 0.0
2014-Aug-29 14:33N 35°38' E 139°45'1 1.0
2014-Aug-29 13:34N 35°37' E 139°46'1 0.9
2014-Aug-29 12:33N 35°37' E 139°47'2 1.9
2014-Aug-29 11:33N 35°38' E 139°45'3 2.8
2014-Aug-29 10:32N 35°36' E 139°48'0 0.0
2014-Aug-29 09:33N 35°36' E 139°48'1 1.2
2014-Aug-29 08:34N 35°36' E 139°46'2 2.0
2014-Aug-29 07:33N 35°38' E 139°45'0 0.0
2014-Aug-29 06:33N 35°38' E 139°45'0 0.0
2014-Aug-29 05:32N 35°38' E 139°45'0 0.0
2014-Aug-29 04:33N 35°38' E 139°45'0 0.0
2014-Aug-29 03:33N 35°38' E 139°45'0 0.0
2014-Aug-29 02:33N 35°38' E 139°45'0 0.0
2014-Aug-29 01:33N 35°38' E 139°45'0 0.0
2014-Aug-29 00:33N 35°38' E 139°45'0 0.0
2014-Aug-28 23:33N 35°38' E 139°45'3 3.3
2014-Aug-28 22:33N 35°35' E 139°47'3 3.3
2014-Aug-28 21:33N 35°38' E 139°45'0 0.0
2014-Aug-28 20:33N 35°38' E 139°45'0 0.0
2014-Aug-28 19:33N 35°38' E 139°45'0 0.0
2014-Aug-28 18:33N 35°38' E 139°45'0 0.0
2014-Aug-28 17:33N 35°38' E 139°45'0 0.0
2014-Aug-28 16:33N 35°38' E 139°45'0 0.0
2014-Aug-28 15:33N 35°38' E 139°45'0 0.0
2014-Aug-28 14:33N 35°38' E 139°45'0 0.0
2014-Aug-28 13:33N 35°38' E 139°45'0 0.0
2014-Aug-28 12:33N 35°38' E 139°45'0 0.0
2014-Aug-28 11:33N 35°38' E 139°45'0 0.0
2014-Aug-28 10:33N 35°38' E 139°45'0 0.0
2014-Aug-28 09:33N 35°38' E 139°46'0 0.1
2014-Aug-28 08:33N 35°38' E 139°45'3 2.8
2014-Aug-28 07:33N 35°36' E 139°47'3 2.7
2014-Aug-28 06:33N 35°38' E 139°45'0 0.0
2014-Aug-28 05:33N 35°38' E 139°45'0 0.0
2014-Aug-28 04:33N 35°38' E 139°45'0 0.0
2014-Aug-28 03:33N 35°38' E 139°45'0 0.0
2014-Aug-28 02:33N 35°38' E 139°45'0 0.0
2014-Aug-28 01:33N 35°38' E 139°45'0 0.0
2014-Aug-28 00:33N 35°38' E 139°45'0 0.0
2014-Aug-27 23:33N 35°38' E 139°45'0 0.0
2014-Aug-27 22:33N 35°38' E 139°45'0 0.0
2014-Aug-27 21:33N 35°38' E 139°45'0 0.0
2014-Aug-27 20:33N 35°38' E 139°45'0 0.0
2014-Aug-27 19:33N 35°38' E 139°45'0 0.0
2014-Aug-27 18:33N 35°38' E 139°45'0 0.0
2014-Aug-27 17:33N 35°38' E 139°45'0 0.0
2014-Aug-27 16:33N 35°38' E 139°45'0 0.0
2014-Aug-27 15:33N 35°38' E 139°45'0 0.0
2014-Aug-27 14:33N 35°38' E 139°45'0 0.0
2014-Aug-27 13:33N 35°38' E 139°45'0 0.0
2014-Aug-27 12:33N 35°38' E 139°45'0 0.0
2014-Aug-27 11:33N 35°38' E 139°45'0 0.0
2014-Aug-27 10:33N 35°38' E 139°45'2 2.2
2014-Aug-27 09:34N 35°36' E 139°46'1 1.1
2014-Aug-27 08:33N 35°36' E 139°48'2 1.8
2014-Aug-27 07:33N 35°37' E 139°46'1 1.1
2014-Aug-27 06:33N 35°38' E 139°45'0 0.0
2014-Aug-27 05:33N 35°38' E 139°45'0 0.0
2014-Aug-27 04:33N 35°38' E 139°45'0 0.0
2014-Aug-27 03:33N 35°38' E 139°46'0 0.0
2014-Aug-27 02:33N 35°38' E 139°45'0 0.0
2014-Aug-27 01:33N 35°38' E 139°45'0 0.0
2014-Aug-27 00:33N 35°38' E 139°45'0 0.0
2014-Aug-26 23:33N 35°38' E 139°45'0 0.0
2014-Aug-26 22:33N 35°38' E 139°45'0 0.0
2014-Aug-26 21:33N 35°38' E 139°45'0 0.0
2014-Aug-26 20:33N 35°38' E 139°45'0 0.0
2014-Aug-26 19:33N 35°38' E 139°45'0 0.0
2014-Aug-26 18:33N 35°38' E 139°45'0 0.0
2014-Aug-26 17:33N 35°38' E 139°45'0 0.0
2014-Aug-26 16:33N 35°38' E 139°45'0 0.0
2014-Aug-26 15:33N 35°38' E 139°45'0 0.0
2014-Aug-26 14:33N 35°38' E 139°45'0 0.0
2014-Aug-26 13:33N 35°38' E 139°46'0 0.0
2014-Aug-26 12:33N 35°38' E 139°45'0 0.0
2014-Aug-26 11:33N 35°38' E 139°46'0 0.0
2014-Aug-26 10:33N 35°38' E 139°45'0 0.0
2014-Aug-26 09:33N 35°38' E 139°45'4 4.2
2014-Aug-26 08:33N 35°35' E 139°48'3 3.2
2014-Aug-26 07:34N 35°37' E 139°46'1 1.1
2014-Aug-26 06:33N 35°38' E 139°45'0 0.0
2014-Aug-26 05:33N 35°38' E 139°45'0 0.0
2014-Aug-26 04:33N 35°38' E 139°45'0 0.0
2014-Aug-26 03:33N 35°38' E 139°45'0 0.0
2014-Aug-26 02:33N 35°38' E 139°45'0 0.0
2014-Aug-26 01:33N 35°38' E 139°45'0 0.0
2014-Aug-26 00:33N 35°38' E 139°45'3 2.9
2014-Aug-25 23:33N 35°36' E 139°47'3 2.9
2014-Aug-25 22:33N 35°38' E 139°45'0 0.0
2014-Aug-25 21:33N 35°38' E 139°45'0 0.0
2014-Aug-25 20:33N 35°38' E 139°45'0 0.0
2014-Aug-25 19:33N 35°38' E 139°45'0 0.0
2014-Aug-25 18:33N 35°38' E 139°45'0 0.0
2014-Aug-25 17:33N 35°38' E 139°45'0 0.0
2014-Aug-25 16:33N 35°38' E 139°45'0 0.0
2014-Aug-25 15:33N 35°38' E 139°45'0 0.0
2014-Aug-25 14:33N 35°38' E 139°45'0 0.0
2014-Aug-25 13:33N 35°38' E 139°45'0 0.0
2014-Aug-25 12:33N 35°38' E 139°45'0 0.0
2014-Aug-25 11:33N 35°38' E 139°45'0 0.0
2014-Aug-25 10:33N 35°38' E 139°45'0 0.0
2014-Aug-25 09:33N 35°38' E 139°45'0 0.0
2014-Aug-25 08:33N 35°38' E 139°45'0 0.0
2014-Aug-25 07:33N 35°38' E 139°45'0 0.0
2014-Aug-25 06:33N 35°38' E 139°45'0 0.0
2014-Aug-25 05:33N 35°38' E 139°45'0 0.0
2014-Aug-25 04:33N 35°38' E 139°45'0 0.0
2014-Aug-25 03:33N 35°38' E 139°45'0 0.0
2014-Aug-25 02:33N 35°38' E 139°45'0 0.0
2014-Aug-25 01:33N 35°38' E 139°45'0 0.0
2014-Aug-25 00:33N 35°38' E 139°45'0 0.0
2014-Aug-24 23:33N 35°38' E 139°45'0 0.0
2014-Aug-24 22:33N 35°38' E 139°45'0 0.0
2014-Aug-24 21:33N 35°38' E 139°45'0 0.0
2014-Aug-24 20:33N 35°38' E 139°45'0 0.0
2014-Aug-24 19:33N 35°38' E 139°45'0 0.0
2014-Aug-24 18:33N 35°38' E 139°45'0 0.0
2014-Aug-24 17:33N 35°38' E 139°45'0 0.0
2014-Aug-24 16:33N 35°38' E 139°45'0 0.0
2014-Aug-24 15:33N 35°38' E 139°45'0 0.0
2014-Aug-24 14:33N 35°38' E 139°45'0 0.0
2014-Aug-24 13:33N 35°38' E 139°45'0 0.0
2014-Aug-24 12:33N 35°38' E 139°45'0 0.0
2014-Aug-24 11:33N 35°38' E 139°45'0 0.0
2014-Aug-24 10:33N 35°38' E 139°45'0 0.0
2014-Aug-24 09:33N 35°38' E 139°45'0 0.0
2014-Aug-24 08:33N 35°38' E 139°45'0 0.0
2014-Aug-24 07:33N 35°38' E 139°45'0 0.0
2014-Aug-24 06:33N 35°38' E 139°45'0 0.0
2014-Aug-24 05:33N 35°38' E 139°45'0 0.0
2014-Aug-24 04:33N 35°38' E 139°45'0 0.0
2014-Aug-24 03:33N 35°38' E 139°45'0 0.0
2014-Aug-24 02:33N 35°38' E 139°45'0 0.0
2014-Aug-24 01:33N 35°38' E 139°45'0 0.0
2014-Aug-24 00:33N 35°38' E 139°45'0 0.0
2014-Aug-23 23:33N 35°38' E 139°45'0 0.0
2014-Aug-23 22:33N 35°38' E 139°45'0 0.0
2014-Aug-23 21:33N 35°38' E 139°45'0 0.0
2014-Aug-23 20:33N 35°38' E 139°45'0 0.0
2014-Aug-23 19:33N 35°38' E 139°45'0 0.0
2014-Aug-23 03:33N 35°38' E 139°45'0 0.0
2014-Aug-23 02:33N 35°38' E 139°45'0 0.0
2014-Aug-23 01:33N 35°38' E 139°45'0 0.0
2014-Aug-23 00:33N 35°38' E 139°45'0 0.0
2014-Aug-22 23:33N 35°38' E 139°45'0 0.0
2014-Aug-22 22:33N 35°38' E 139°45'0 0.0
2014-Aug-22 21:33N 35°38' E 139°45'0 0.0
2014-Aug-22 20:33N 35°38' E 139°45'0 0.0
2014-Aug-22 19:33N 35°38' E 139°45'0 0.0
2014-Aug-22 18:33N 35°38' E 139°45'0 0.0
2014-Aug-22 17:33N 35°38' E 139°45'0 0.0
2014-Aug-22 16:33N 35°38' E 139°45'0 0.0
2014-Aug-22 15:33N 35°38' E 139°45'0 0.0
2014-Aug-22 14:33N 35°38' E 139°45'0 0.0
2014-Aug-22 13:33N 35°38' E 139°45'0 0.0
2014-Aug-22 12:33N 35°38' E 139°45'0 0.0
2014-Aug-22 11:33N 35°38' E 139°45'0 0.0
2014-Aug-22 10:33N 35°38' E 139°45'0 0.0
2014-Aug-22 09:33N 35°38' E 139°45'0 0.0
2014-Aug-22 08:33N 35°38' E 139°45'0 0.0
2014-Aug-22 07:33N 35°38' E 139°45'0 0.0
2014-Aug-22 06:32N 35°38' E 139°45'0 0.0
2014-Aug-22 05:33N 35°38' E 139°45'0 0.0
2014-Aug-22 04:33N 35°38' E 139°45'2 1.6
2014-Aug-22 03:33N 35°37' E 139°46'2 1.6
2014-Aug-22 02:33N 35°38' E 139°45'0 0.0
2014-Aug-22 01:33N 35°38' E 139°45'0 0.0
2014-Aug-22 00:33N 35°38' E 139°45'1 1.0
2014-Aug-21 23:33N 35°37' E 139°46'3 2.8
2014-Aug-21 22:33N 35°35' E 139°48'1 1.3
2014-Aug-21 21:33N 35°36' E 139°46'1 1.5
2014-Aug-21 20:33N 35°37' E 139°46'1 1.2
2014-Aug-21 19:33N 35°38' E 139°45'0 0.0
2014-Aug-21 18:33N 35°38' E 139°45'0 0.0
2014-Aug-21 17:33N 35°38' E 139°45'0 0.0
2014-Aug-21 16:33N 35°38' E 139°45'0 0.0
2014-Aug-21 15:33N 35°38' E 139°45'0 0.0
2014-Aug-21 14:33N 35°38' E 139°45'0 0.0
2014-Aug-21 13:33N 35°38' E 139°45'0 0.0
2014-Aug-21 12:33N 35°38' E 139°45'0 0.0
2014-Aug-21 11:33N 35°38' E 139°45'0 0.0
2014-Aug-21 10:33N 35°38' E 139°45'1 1.1
2014-Aug-21 09:33N 35°37' E 139°46'1 1.3
2014-Aug-21 08:33N 35°36' E 139°47'1 0.9
2014-Aug-21 07:33N 35°35' E 139°47'3 2.9
2014-Aug-21 06:33N 35°38' E 139°45'0 0.0
2014-Aug-21 05:32N 35°38' E 139°45'0 0.0
2014-Aug-21 04:33N 35°38' E 139°45'0 0.0
2014-Aug-21 03:32N 35°38' E 139°45'0 0.0
2014-Aug-21 02:33N 35°38' E 139°45'0 0.0
2014-Aug-21 01:33N 35°38' E 139°45'0 0.0
2014-Aug-21 00:33N 35°38' E 139°45'0 0.0
2014-Aug-20 23:33N 35°38' E 139°45'3 2.9
2014-Aug-20 22:33N 35°35' E 139°47'0 0.1
2014-Aug-20 21:33N 35°36' E 139°47'1 0.9
2014-Aug-20 20:33N 35°36' E 139°46'1 1.1
2014-Aug-20 19:33N 35°36' E 139°47'3 2.7
2014-Aug-20 18:33N 35°38' E 139°45'0 0.0
2014-Aug-20 17:33N 35°38' E 139°45'0 0.0
2014-Aug-20 16:33N 35°38' E 139°45'0 0.0
2014-Aug-20 15:33N 35°38' E 139°45'0 0.0
2014-Aug-20 14:33N 35°38' E 139°45'0 0.0
2014-Aug-20 13:33N 35°38' E 139°45'0 0.0
2014-Aug-20 12:33N 35°38' E 139°45'  

Dump ship's entire track history